Time;durP1;ratioP1;P1;durP2;ratioP2;P2;SDS_P1;SDS_P2;PMS_P1;PMS_P2;Temp;Humidity;BMP_temperature;BMP_pressure;BME280_temperature;BME280_humidity;BME280_pressure;Samples;Min_cycle;Max_cycle;Signal;HPM_P1;HPM_P2
2022/05/20 00:01:02;;;;;;;3.00;2.80;;;16.90;99.90;;;;;;497247;239;28775;-70
2022/05/20 00:03:03;;;;;;;2.90;2.70;;;16.90;99.90;;;;;;497248;239;29255;-70
2022/05/20 00:05:04;;;;;;;2.97;2.77;;;16.80;99.90;;;;;;497303;239;29343;-71
2022/05/20 00:07:06;;;;;;;3.40;3.13;;;16.80;99.90;;;;;;497263;239;29223;-71
2022/05/20 00:09:07;;;;;;;3.10;2.90;;;16.90;99.90;;;;;;497330;239;28897;-71
2022/05/20 00:11:08;;;;;;;3.30;3.00;;;16.90;99.90;;;;;;497311;239;28777;-70
2022/05/20 00:13:10;;;;;;;3.23;2.93;;;16.90;99.90;;;;;;497297;239;28777;-70
2022/05/20 00:15:10;;;;;;;3.20;2.90;;;16.90;99.90;;;;;;497335;239;28903;-73
2022/05/20 00:17:12;;;;;;;3.00;2.80;;;16.90;99.90;;;;;;497025;239;28780;-70
2022/05/20 00:19:13;;;;;;;3.10;2.90;;;16.90;99.90;;;;;;497242;239;28928;-71
2022/05/20 00:21:14;;;;;;;3.20;2.90;;;16.90;99.90;;;;;;497240;239;28867;-70
2022/05/20 00:23:15;;;;;;;3.33;3.13;;;16.90;99.90;;;;;;497294;239;28681;-70
2022/05/20 00:27:36;;;;;;;3.10;2.90;;;17.00;99.90;;;;;;497283;238;28841;-71
2022/05/20 00:29:38;;;;;;;2.83;2.63;;;17.00;99.90;;;;;;497258;239;28783;-70
2022/05/20 00:31:39;;;;;;;3.20;3.00;;;17.00;99.90;;;;;;497269;239;28785;-73
2022/05/20 00:33:40;;;;;;;3.10;2.90;;;16.90;99.90;;;;;;497177;239;28760;-70
2022/05/20 00:35:41;;;;;;;3.13;2.93;;;16.80;99.90;;;;;;497267;239;29365;-72
2022/05/20 00:37:43;;;;;;;2.83;2.63;;;16.80;99.90;;;;;;497247;239;29285;-70
2022/05/20 00:39:44;;;;;;;3.10;2.90;;;16.70;99.90;;;;;;497215;239;29301;-70
2022/05/20 00:41:45;;;;;;;2.70;2.60;;;16.80;99.90;;;;;;497274;239;29159;-72
2022/05/20 00:43:46;;;;;;;2.80;2.63;;;16.80;99.90;;;;;;497257;239;28748;-70
2022/05/20 00:45:48;;;;;;;4.13;2.80;;;16.80;99.90;;;;;;497263;239;28788;-70
2022/05/20 00:47:49;;;;;;;2.80;2.60;;;16.80;99.90;;;;;;497246;239;28764;-69
2022/05/20 00:49:50;;;;;;;3.10;2.90;;;16.80;99.90;;;;;;497260;239;28892;-71
2022/05/20 00:51:51;;;;;;;3.00;2.80;;;16.80;99.90;;;;;;497267;239;28740;-74
2022/05/20 00:53:53;;;;;;;3.00;2.80;;;16.80;99.90;;;;;;497269;239;28891;-70
2022/05/20 00:55:54;;;;;;;2.83;2.63;;;16.80;99.90;;;;;;497239;239;28796;-71
2022/05/20 00:57:55;;;;;;;2.77;2.57;;;16.80;99.90;;;;;;497238;239;28744;-70
2022/05/20 00:59:56;;;;;;;2.90;2.70;;;16.80;99.90;;;;;;497277;239;28780;-70
2022/05/20 01:01:58;;;;;;;2.57;2.40;;;16.80;99.90;;;;;;497283;239;29308;-70
2022/05/20 01:03:59;;;;;;;2.80;2.60;;;16.90;99.90;;;;;;497276;239;29260;-71
2022/05/20 01:06:00;;;;;;;2.60;2.43;;;16.90;99.90;;;;;;497283;239;29333;-70
2022/05/20 01:08:01;;;;;;;3.20;2.90;;;16.80;99.90;;;;;;497245;239;29242;-70
2022/05/20 01:10:03;;;;;;;3.60;3.30;;;16.70;99.90;;;;;;497161;239;28791;-71
2022/05/20 01:12:04;;;;;;;3.27;2.97;;;16.60;99.90;;;;;;497274;239;28875;-71
2022/05/20 01:14:05;;;;;;;2.70;2.60;;;16.60;99.90;;;;;;497263;239;28730;-71
2022/05/20 01:16:07;;;;;;;2.70;2.50;;;16.60;99.90;;;;;;497258;239;28793;-70
2022/05/20 01:18:08;;;;;;;3.13;2.93;;;16.60;99.90;;;;;;497285;239;28897;-70
2022/05/20 01:20:09;;;;;;;2.83;2.63;;;16.60;99.90;;;;;;497186;239;28684;-70
2022/05/20 01:22:10;;;;;;;3.10;2.90;;;16.60;99.90;;;;;;497274;239;28803;-71
2022/05/20 01:24:11;;;;;;;3.20;3.00;;;16.60;99.90;;;;;;497257;239;28759;-70
2022/05/20 01:26:13;;;;;;;3.03;2.83;;;16.60;99.90;;;;;;497265;239;29345;-70
2022/05/20 01:28:14;;;;;;;2.93;2.73;;;16.60;99.90;;;;;;497288;239;29357;-70
2022/05/20 01:30:15;;;;;;;3.00;2.80;;;16.60;99.90;;;;;;497252;239;29227;-70
2022/05/20 01:32:16;;;;;;;3.07;2.87;;;16.60;99.90;;;;;;497238;239;28903;-71
2022/05/20 01:34:18;;;;;;;2.70;2.60;;;16.60;99.90;;;;;;497254;239;28848;-70
2022/05/20 01:36:19;;;;;;;3.30;3.10;;;16.60;99.90;;;;;;497251;239;28881;-71
2022/05/20 01:38:20;;;;;;;2.90;2.70;;;16.60;99.90;;;;;;497279;239;28855;-73
2022/05/20 01:40:21;;;;;;;2.90;2.70;;;16.50;99.90;;;;;;497278;239;28759;-70
2022/05/20 01:42:23;;;;;;;2.60;2.50;;;16.50;99.90;;;;;;497245;239;28902;-71
2022/05/20 01:44:24;;;;;;;3.50;2.97;;;16.50;99.90;;;;;;497230;239;28772;-70
2022/05/20 01:46:25;;;;;;;3.13;2.93;;;16.50;99.90;;;;;;497294;239;28891;-70
2022/05/20 01:48:26;;;;;;;3.73;3.43;;;16.50;99.90;;;;;;497257;239;28815;-72
2022/05/20 01:50:28;;;;;;;3.30;3.10;;;16.30;99.90;;;;;;497246;239;29260;-70
2022/05/20 01:52:29;;;;;;;3.53;3.33;;;16.10;99.90;;;;;;497272;239;29309;-71
2022/05/20 01:54:30;;;;;;;4.13;3.83;;;16.10;99.90;;;;;;497259;239;29588;-70
2022/05/20 01:56:31;;;;;;;3.50;3.30;;;16.10;99.90;;;;;;497268;239;29302;-70
2022/05/20 01:58:33;;;;;;;3.50;3.20;;;16.20;99.90;;;;;;497176;239;28797;-71
2022/05/20 02:00:34;;;;;;;4.50;3.20;;;16.20;99.90;;;;;;497221;239;28903;-70
2022/05/20 02:02:35;;;;;;;3.17;2.97;;;16.30;99.90;;;;;;497247;239;28898;-71
2022/05/20 02:04:39;;;;;;;3.50;3.30;;;16.30;99.90;;;;;;497267;239;28760;-70
2022/05/20 02:06:38;;;;;;;3.57;3.27;;;16.30;99.90;;;;;;497114;239;28762;-71
2022/05/20 02:08:41;;;;;;;3.63;3.40;;;16.40;99.90;;;;;;497291;239;28871;-71
2022/05/20 02:10:42;;;;;;;3.67;3.37;;;16.40;99.90;;;;;;497279;239;28876;-70
2022/05/20 02:12:46;;;;;;;4.13;3.83;;;16.40;99.90;;;;;;497267;239;28887;-70
2022/05/20 02:14:45;;;;;;;3.77;3.50;;;16.40;99.90;;;;;;497109;239;29869;-70
2022/05/20 02:16:46;;;;;;;4.03;3.73;;;16.40;99.90;;;;;;497287;239;29230;-70
2022/05/20 02:18:49;;;;;;;4.37;4.03;;;16.50;99.90;;;;;;497278;239;29346;-72
2022/05/20 02:20:48;;;;;;;4.03;3.73;;;16.50;99.90;;;;;;497163;239;28852;-70
2022/05/20 02:22:50;;;;;;;4.13;3.83;;;16.40;99.90;;;;;;497248;239;28875;-71
2022/05/20 02:24:51;;;;;;;3.90;3.60;;;16.40;99.90;;;;;;497290;239;28879;-70
2022/05/20 02:26:52;;;;;;;3.40;3.20;;;16.40;99.90;;;;;;497267;239;28697;-71
2022/05/20 02:28:53;;;;;;;3.40;3.20;;;16.40;99.90;;;;;;497229;239;28797;-71
2022/05/20 02:30:55;;;;;;;3.57;3.37;;;16.50;99.90;;;;;;497225;239;28772;-70
2022/05/20 02:32:56;;;;;;;3.50;3.20;;;16.50;99.90;;;;;;497236;239;28809;-71
2022/05/20 02:34:57;;;;;;;3.53;3.30;;;16.40;99.90;;;;;;497307;239;28892;-73
2022/05/20 02:36:58;;;;;;;3.90;3.50;;;16.40;99.90;;;;;;497263;239;28797;-70
2022/05/20 02:39:00;;;;;;;3.57;3.37;;;16.30;99.90;;;;;;497225;239;29257;-70
2022/05/20 02:41:01;;;;;;;3.60;3.40;;;16.20;99.90;;;;;;497240;239;29296;-70
2022/05/20 02:43:02;;;;;;;3.93;3.63;;;16.20;99.90;;;;;;497245;239;29217;-71
2022/05/20 02:45:03;;;;;;;3.47;3.27;;;16.30;99.90;;;;;;497299;239;28828;-72
2022/05/20 02:47:05;;;;;;;3.33;3.13;;;16.20;99.90;;;;;;497252;239;28761;-70
2022/05/20 02:49:06;;;;;;;3.83;3.53;;;16.20;99.90;;;;;;497238;239;28879;-70
2022/05/20 02:51:07;;;;;;;3.87;3.60;;;16.20;99.90;;;;;;497233;239;28773;-70
2022/05/20 02:53:08;;;;;;;3.10;2.90;;;16.20;99.90;;;;;;497241;239;28766;-71
2022/05/20 02:55:10;;;;;;;3.40;3.20;;;16.20;99.90;;;;;;497279;239;28860;-70
2022/05/20 02:57:11;;;;;;;3.53;3.33;;;16.20;99.90;;;;;;497252;239;28829;-70
2022/05/20 03:04:13;;;;;;;3.57;3.27;;;16.10;99.90;;;;;;497267;238;30078;-71
2022/05/20 03:05:53;;;;;;;3.50;3.30;;;16.10;99.90;;;;;;495870;239;28893;-71
2022/05/20 03:07:54;;;;;;;3.80;3.60;;;16.10;99.90;;;;;;497281;239;28810;-71
2022/05/20 03:09:55;;;;;;;3.60;3.40;;;16.10;99.90;;;;;;497273;239;28752;-70
2022/05/20 03:11:57;;;;;;;3.60;3.40;;;16.10;99.90;;;;;;497238;239;28798;-71
2022/05/20 03:13:58;;;;;;;3.50;3.23;;;16.10;99.90;;;;;;497275;239;28891;-70
2022/05/20 03:15:59;;;;;;;3.40;3.20;;;16.10;99.90;;;;;;497282;239;28702;-71
2022/05/20 03:18:00;;;;;;;3.53;3.23;;;16.10;99.90;;;;;;497284;239;28795;-72
2022/05/20 03:20:03;;;;;;;3.77;3.47;;;16.00;99.90;;;;;;497275;239;28774;-71
2022/05/20 03:22:03;;;;;;;3.50;3.30;;;16.00;99.90;;;;;;497214;239;29273;-70
2022/05/20 03:24:04;;;;;;;3.37;3.07;;;16.00;99.90;;;;;;497270;239;29628;-70
2022/05/20 03:26:05;;;;;;;3.60;3.30;;;16.00;99.90;;;;;;497279;239;29312;-70
2022/05/20 03:28:07;;;;;;;3.37;3.07;;;16.00;99.90;;;;;;497282;239;29307;-71
2022/05/20 03:30:08;;;;;;;3.80;3.60;;;16.00;99.90;;;;;;497288;239;28757;-70
2022/05/20 03:32:10;;;;;;;4.33;4.03;;;16.00;99.90;;;;;;497239;239;28812;-71
2022/05/20 03:34:10;;;;;;;5.53;4.37;;;15.90;99.90;;;;;;497226;239;28866;-70
2022/05/20 03:36:12;;;;;;;4.70;4.30;;;15.70;99.90;;;;;;497293;239;28871;-71
2022/05/20 03:38:13;;;;;;;4.17;3.87;;;15.70;99.90;;;;;;497238;239;28817;-73
2022/05/20 03:40:14;;;;;;;4.00;3.70;;;15.70;99.90;;;;;;497278;239;28785;-70
2022/05/20 03:42:15;;;;;;;3.90;3.60;;;15.80;99.90;;;;;;497280;239;28888;-71
2022/05/20 03:44:17;;;;;;;3.90;3.60;;;15.80;99.90;;;;;;497225;239;28835;-70
2022/05/20 03:46:18;;;;;;;3.10;2.90;;;15.80;99.90;;;;;;497275;239;28739;-70
2022/05/20 03:48:20;;;;;;;3.90;3.60;;;15.90;99.90;;;;;;497297;239;29269;-72
2022/05/20 03:50:21;;;;;;;4.40;4.10;;;15.80;99.90;;;;;;497298;239;28806;-72
2022/05/20 03:52:23;;;;;;;4.10;3.90;;;15.80;99.90;;;;;;497280;239;29246;-70
2022/05/20 03:54:24;;;;;;;4.13;3.90;;;15.80;99.90;;;;;;497247;239;29287;-70
2022/05/20 03:56:25;;;;;;;4.03;3.73;;;15.90;99.90;;;;;;497289;239;29387;-71
2022/05/20 03:58:26;;;;;;;3.70;3.50;;;15.90;99.90;;;;;;497332;239;29322;-70
2022/05/20 04:00:28;;;;;;;3.37;3.17;;;15.90;99.90;;;;;;497318;239;28810;-70
2022/05/20 04:02:29;;;;;;;3.30;3.10;;;15.90;99.90;;;;;;497288;239;28785;-71
2022/05/20 04:04:31;;;;;;;3.20;3.00;;;15.90;99.90;;;;;;497250;239;28891;-70
2022/05/20 04:06:31;;;;;;;3.40;3.20;;;15.90;99.90;;;;;;497234;239;29272;-71
2022/05/20 04:08:33;;;;;;;2.93;2.77;;;16.00;99.90;;;;;;497282;239;29310;-71
2022/05/20 04:10:34;;;;;;;3.37;3.17;;;15.90;99.90;;;;;;497284;239;29351;-71
2022/05/20 04:12:35;;;;;;;2.63;2.53;;;15.90;99.90;;;;;;497251;239;28905;-70
2022/05/20 04:14:36;;;;;;;3.10;2.90;;;16.00;99.90;;;;;;497275;239;28796;-70
2022/05/20 04:16:38;;;;;;;3.20;3.00;;;15.90;99.90;;;;;;497306;239;28800;-73
2022/05/20 04:18:41;;;;;;;2.80;2.60;;;15.90;99.90;;;;;;497301;239;28776;-71
2022/05/20 04:20:40;;;;;;;3.00;2.80;;;16.00;99.90;;;;;;497174;239;28831;-71
2022/05/20 04:22:41;;;;;;;3.23;3.03;;;16.00;99.90;;;;;;497256;239;28897;-70
2022/05/20 04:24:43;;;;;;;2.70;2.60;;;16.00;99.90;;;;;;497250;239;28819;-71
2022/05/20 04:26:44;;;;;;;3.10;2.90;;;16.00;99.90;;;;;;497283;238;28827;-72
2022/05/20 04:28:45;;;;;;;3.00;2.80;;;16.10;99.90;;;;;;497267;239;28800;-70
2022/05/20 04:30:46;;;;;;;2.77;2.57;;;16.10;99.90;;;;;;497252;239;29392;-70
2022/05/20 04:32:48;;;;;;;2.60;2.40;;;16.00;99.90;;;;;;497263;239;29213;-70
2022/05/20 04:34:49;;;;;;;2.60;2.50;;;16.00;99.90;;;;;;497254;239;29377;-71
2022/05/20 04:36:50;;;;;;;2.70;2.60;;;16.00;99.90;;;;;;497272;239;29266;-70
2022/05/20 04:38:51;;;;;;;3.37;3.17;;;16.00;99.90;;;;;;497265;239;28768;-70
2022/05/20 04:47:52;;;;;;;2.73;2.53;;;15.90;99.90;;;;;;497256;238;29192;-70
2022/05/20 04:49:53;;;;;;;3.00;2.80;;;15.90;99.90;;;;;;497245;239;29307;-70
2022/05/20 04:51:54;;;;;;;3.37;3.17;;;15.90;99.90;;;;;;497235;239;28878;-70
2022/05/20 04:56:15;;;;;;;2.90;2.80;;;16.00;99.90;;;;;;497232;238;28789;-71
2022/05/20 04:58:16;;;;;;;3.10;2.90;;;16.10;99.90;;;;;;497266;239;28761;-70
2022/05/20 05:00:18;;;;;;;3.40;3.20;;;16.10;99.90;;;;;;497288;239;28839;-70
2022/05/20 05:02:19;;;;;;;3.23;3.03;;;16.00;99.90;;;;;;497274;239;29272;-72
2022/05/20 05:04:20;;;;;;;3.10;2.90;;;16.00;99.90;;;;;;497218;239;29296;-70
2022/05/20 05:06:23;;;;;;;3.63;3.43;;;15.90;99.90;;;;;;497178;239;29322;-71
2022/05/20 05:08:23;;;;;;;3.40;3.20;;;16.00;99.90;;;;;;497112;239;29900;-70
2022/05/20 05:10:24;;;;;;;3.10;2.90;;;16.00;99.90;;;;;;497247;239;28870;-70
2022/05/20 05:12:25;;;;;;;3.47;3.27;;;16.10;99.90;;;;;;497261;239;28914;-70
2022/05/20 05:14:28;;;;;;;3.13;2.93;;;16.10;99.90;;;;;;497264;239;28741;-70
2022/05/20 05:16:28;;;;;;;3.80;3.60;;;16.10;99.90;;;;;;497200;239;28783;-71
2022/05/20 05:18:29;;;;;;;3.10;2.90;;;16.20;99.90;;;;;;497235;239;28921;-70
2022/05/20 05:20:32;;;;;;;2.80;2.70;;;16.20;99.90;;;;;;497303;239;28681;-70
2022/05/20 05:22:32;;;;;;;3.47;3.27;;;16.20;99.90;;;;;;497203;239;28788;-72
2022/05/20 05:24:33;;;;;;;3.87;3.53;;;16.30;99.90;;;;;;497287;238;28853;-71
2022/05/20 05:26:40;;;;;;;3.27;3.07;;;16.30;99.90;;;;;;497245;239;29321;-71
2022/05/20 05:28:35;;;;;;;3.23;3.07;;;16.30;99.90;;;;;;496844;239;29216;-70
2022/05/20 05:30:36;;;;;;;3.47;3.27;;;16.40;99.90;;;;;;497271;239;29285;-70
2022/05/20 05:32:38;;;;;;;3.50;3.30;;;16.50;99.90;;;;;;497237;239;29260;-70
2022/05/20 05:34:39;;;;;;;5.10;3.20;;;16.50;99.90;;;;;;497262;239;28765;-70
2022/05/20 05:36:40;;;;;;;3.10;2.90;;;16.60;99.90;;;;;;497237;239;28881;-70
2022/05/20 05:38:42;;;;;;;3.53;3.30;;;16.70;99.90;;;;;;497241;239;28810;-71
2022/05/20 05:40:43;;;;;;;3.60;3.30;;;16.60;99.90;;;;;;497290;239;28789;-71
2022/05/20 05:42:44;;;;;;;3.57;3.37;;;16.50;99.90;;;;;;497285;239;28892;-70
2022/05/20 05:44:45;;;;;;;4.20;3.90;;;16.50;99.90;;;;;;497265;239;28845;-71
2022/05/20 05:46:47;;;;;;;3.50;3.30;;;16.60;99.90;;;;;;497227;239;28926;-71
2022/05/20 05:48:48;;;;;;;3.40;3.20;;;16.70;99.90;;;;;;497250;239;28784;-70
2022/05/20 05:50:49;;;;;;;4.00;3.70;;;16.70;99.90;;;;;;497285;239;28818;-71
2022/05/20 05:52:50;;;;;;;4.00;3.70;;;16.80;99.90;;;;;;497242;239;29269;-72
2022/05/20 05:54:52;;;;;;;4.30;4.00;;;16.90;99.90;;;;;;497266;239;29285;-71
2022/05/20 05:56:53;;;;;;;3.50;3.30;;;16.90;99.90;;;;;;497255;239;29288;-70
2022/05/20 05:58:54;;;;;;;3.77;3.50;;;17.00;99.90;;;;;;497244;239;29267;-70
2022/05/20 06:00:55;;;;;;;3.73;3.43;;;17.10;99.90;;;;;;497284;239;28757;-70
2022/05/20 06:02:57;;;;;;;3.90;3.60;;;17.20;99.90;;;;;;497281;239;28888;-73
2022/05/20 06:04:58;;;;;;;4.00;3.70;;;17.30;99.90;;;;;;497239;239;28766;-70
2022/05/20 06:06:59;;;;;;;3.73;3.53;;;17.30;99.90;;;;;;497228;239;28816;-71
2022/05/20 06:09:00;;;;;;;4.07;3.80;;;17.40;99.90;;;;;;497234;239;28884;-71
2022/05/20 06:11:02;;;;;;;4.10;3.80;;;17.50;99.90;;;;;;497252;239;28774;-71
2022/05/20 06:13:04;;;;;;;4.00;3.70;;;17.50;99.90;;;;;;497246;239;28888;-71
2022/05/20 06:15:05;;;;;;;3.70;3.50;;;17.60;99.90;;;;;;497237;239;28908;-71
2022/05/20 06:17:07;;;;;;;3.60;3.40;;;17.70;99.90;;;;;;497236;239;28757;-70
2022/05/20 06:19:08;;;;;;;3.70;3.43;;;17.80;99.90;;;;;;497261;239;29340;-71
2022/05/20 06:21:09;;;;;;;3.50;3.30;;;18.00;99.90;;;;;;497261;239;29372;-74
2022/05/20 06:23:10;;;;;;;3.57;3.27;;;18.10;99.90;;;;;;497206;239;29232;-71
2022/05/20 06:25:12;;;;;;;3.97;3.67;;;18.20;99.90;;;;;;497236;239;28806;-71
2022/05/20 06:27:13;;;;;;;4.27;3.63;;;18.20;99.90;;;;;;497112;239;28774;-71
2022/05/20 06:29:15;;;;;;;3.80;3.50;;;18.30;99.90;;;;;;497204;239;28780;-71
2022/05/20 06:31:15;;;;;;;3.60;3.40;;;18.30;99.90;;;;;;497105;239;28820;-74
2022/05/20 06:33:17;;;;;;;4.00;3.70;;;18.40;99.90;;;;;;497017;239;28847;-71
2022/05/20 06:39:57;;;;;;;3.60;3.40;;;18.40;99.90;;;;;;497216;238;29217;-71
2022/05/20 06:41:58;;;;;;;3.63;3.43;;;18.40;99.90;;;;;;497239;239;29320;-71
2022/05/20 06:43:59;;;;;;;3.90;3.60;;;18.40;99.90;;;;;;497207;239;29296;-76
2022/05/20 06:46:01;;;;;;;4.10;3.80;;;18.40;99.90;;;;;;497241;239;28772;-71
2022/05/20 06:48:02;;;;;;;4.33;3.93;;;18.50;99.90;;;;;;497007;239;28869;-71
2022/05/20 06:50:03;;;;;;;5.10;3.53;;;18.60;99.90;;;;;;497132;239;28840;-71
2022/05/20 06:52:04;;;;;;;3.67;3.43;;;18.70;99.90;;;;;;497138;239;28809;-71
2022/05/20 06:54:06;;;;;;;4.17;3.87;;;18.70;99.90;;;;;;497254;239;28809;-74
2022/05/20 06:56:07;;;;;;;3.90;3.60;;;18.80;99.90;;;;;;497259;239;28769;-70
2022/05/20 06:58:08;;;;;;;3.80;3.60;;;18.90;99.90;;;;;;497258;239;28895;-72
2022/05/20 07:00:11;;;;;;;3.40;3.20;;;19.00;99.90;;;;;;497244;239;28769;-71
2022/05/20 07:02:11;;;;;;;3.83;3.57;;;19.10;99.90;;;;;;497121;239;28811;-71
2022/05/20 07:04:12;;;;;;;4.20;3.90;;;19.10;99.90;;;;;;497276;239;29269;-74
2022/05/20 07:06:13;;;;;;;4.40;3.73;;;19.30;99.90;;;;;;497241;239;29226;-71
2022/05/20 07:08:14;;;;;;;3.90;3.60;;;19.40;99.90;;;;;;497247;239;29272;-72
2022/05/20 07:10:16;;;;;;;4.60;4.30;;;19.50;99.90;;;;;;497083;239;29704;-71
2022/05/20 07:12:17;;;;;;;5.27;4.30;;;19.50;99.90;;;;;;497227;239;28879;-71
2022/05/20 07:14:18;;;;;;;4.60;4.30;;;19.60;99.90;;;;;;497254;239;28792;-75
2022/05/20 07:16:19;;;;;;;4.50;4.10;;;19.60;99.90;;;;;;497223;239;28761;-71
2022/05/20 07:18:21;;;;;;;4.73;3.70;;;19.70;99.90;;;;;;497219;239;28831;-71
2022/05/20 07:20:22;;;;;;;3.67;3.37;;;19.80;99.90;;;;;;497208;239;28864;-71
2022/05/20 07:22:23;;;;;;;5.00;4.50;;;19.80;99.90;;;;;;497213;239;28788;-71
2022/05/20 07:24:24;;;;;;;3.60;3.30;;;19.80;99.90;;;;;;497241;239;28890;-74
2022/05/20 07:26:26;;;;;;;4.10;3.50;;;19.90;99.90;;;;;;497231;239;28762;-71
2022/05/20 07:28:28;;;;;;;4.50;3.80;;;20.00;99.90;;;;;;497208;239;29355;-72
2022/05/20 07:30:28;;;;;;;4.27;3.90;;;20.00;99.90;;;;;;497183;239;29242;-71
2022/05/20 07:32:29;;;;;;;3.97;3.67;;;20.00;99.90;;;;;;497192;239;29223;-71
2022/05/20 07:34:31;;;;;;;4.40;4.00;;;20.10;99.90;;;;;;497244;239;29284;-74
2022/05/20 07:36:32;;;;;;;4.07;3.77;;;20.10;99.90;;;;;;497212;239;28769;-71
2022/05/20 07:38:33;;;;;;;4.20;3.90;;;20.10;99.90;;;;;;497213;239;28890;-72
2022/05/20 07:40:34;;;;;;;3.60;3.30;;;20.10;99.90;;;;;;497192;239;28888;-70
2022/05/20 07:42:36;;;;;;;4.00;3.60;;;20.20;99.90;;;;;;497208;239;28867;-71
2022/05/20 07:44:37;;;;;;;4.03;3.73;;;20.20;99.90;;;;;;497269;239;28900;-75
2022/05/20 07:46:38;;;;;;;3.73;3.43;;;20.20;99.90;;;;;;497248;239;28776;-71
2022/05/20 07:48:39;;;;;;;3.93;3.60;;;20.20;99.90;;;;;;497266;239;28823;-72
2022/05/20 07:50:42;;;;;;;5.40;3.93;;;20.30;99.90;;;;;;497245;239;28841;-71
2022/05/20 07:55:02;;;;;;;4.53;3.80;;;20.30;99.90;;;;;;497265;238;28889;-73
2022/05/20 07:57:03;;;;;;;3.90;3.60;;;20.40;99.90;;;;;;497233;239;28770;-71
2022/05/20 07:59:04;;;;;;;3.63;3.37;;;20.40;99.90;;;;;;497249;239;28812;-72
2022/05/20 08:01:05;;;;;;;6.33;3.67;;;20.50;99.90;;;;;;497253;239;29247;-75
2022/05/20 08:03:07;;;;;;;4.20;3.50;;;20.60;99.90;;;;;;497260;239;28819;-71
2022/05/20 08:05:08;;;;;;;3.90;3.60;;;20.60;99.90;;;;;;497237;239;29389;-71
2022/05/20 08:07:09;;;;;;;4.00;3.70;;;20.60;99.90;;;;;;497244;239;29221;-71
2022/05/20 08:09:10;;;;;;;4.03;3.70;;;20.70;99.90;;;;;;497234;239;29345;-71
2022/05/20 08:11:12;;;;;;;4.40;3.90;;;20.70;99.90;;;;;;497245;239;28931;-74
2022/05/20 08:13:13;;;;;;;5.10;4.17;;;20.80;99.90;;;;;;497243;239;28872;-71
2022/05/20 08:15:14;;;;;;;4.40;4.00;;;20.80;99.90;;;;;;497266;239;28807;-73
2022/05/20 08:17:15;;;;;;;4.83;4.40;;;20.90;99.90;;;;;;497240;239;28872;-71
2022/05/20 08:19:17;;;;;;;9.20;4.40;;;20.90;99.90;;;;;;497237;239;28802;-71
2022/05/20 08:21:18;;;;;;;5.23;4.40;;;20.90;99.90;;;;;;497182;239;28854;-72
2022/05/20 08:23:19;;;;;;;4.23;3.93;;;20.90;99.90;;;;;;497249;239;28781;-71
2022/05/20 08:25:20;;;;;;;4.80;4.27;;;21.00;99.90;;;;;;497243;239;28805;-71
2022/05/20 08:27:22;;;;;;;4.43;4.03;;;21.00;99.90;;;;;;497241;239;28879;-71
2022/05/20 08:29:23;;;;;;;5.33;4.83;;;21.10;99.90;;;;;;497248;239;29377;-72
2022/05/20 08:31:24;;;;;;;4.50;4.20;;;21.10;99.90;;;;;;497228;239;29389;-74
2022/05/20 08:33:25;;;;;;;4.07;3.67;;;21.10;99.90;;;;;;497259;239;29236;-71
2022/05/20 08:35:27;;;;;;;3.83;3.53;;;21.30;99.90;;;;;;497157;239;29260;-72
2022/05/20 08:37:28;;;;;;;5.90;4.03;;;21.30;99.90;;;;;;497203;239;28792;-71
2022/05/20 08:39:29;;;;;;;4.37;3.97;;;21.30;99.90;;;;;;497245;239;28789;-71
2022/05/20 08:41:30;;;;;;;4.40;3.90;;;21.30;99.90;;;;;;497276;239;28794;-75
2022/05/20 08:43:32;;;;;;;4.30;3.90;;;21.40;99.90;;;;;;497290;239;28785;-72
2022/05/20 08:45:33;;;;;;;5.03;3.80;;;21.40;99.90;;;;;;497245;239;28828;-73
2022/05/20 08:47:34;;;;;;;4.27;3.93;;;21.40;99.90;;;;;;497227;239;28819;-71
2022/05/20 08:49:35;;;;;;;3.83;3.50;;;21.50;99.90;;;;;;497218;239;28825;-71
2022/05/20 08:51:37;;;;;;;8.17;4.43;;;21.70;99.90;;;;;;497275;239;28814;-74
2022/05/20 08:53:38;;;;;;;6.67;4.17;;;21.70;99.90;;;;;;497223;239;29288;-71
2022/05/20 08:55:39;;;;;;;3.90;3.60;;;21.70;99.90;;;;;;497252;239;29295;-73
2022/05/20 08:57:40;;;;;;;4.47;4.00;;;21.70;99.90;;;;;;497213;239;29212;-71
2022/05/20 08:59:42;;;;;;;7.30;4.57;;;21.80;99.90;;;;;;497241;239;29339;-71
2022/05/20 09:01:43;;;;;;;3.97;3.60;;;21.90;99.90;;;;;;497267;239;28722;-74
2022/05/20 09:03:44;;;;;;;4.17;3.77;;;21.90;99.90;;;;;;497248;239;28809;-71
2022/05/20 09:05:45;;;;;;;4.00;3.70;;;21.90;99.90;;;;;;497226;239;28833;-72
2022/05/20 09:07:47;;;;;;;4.23;3.47;;;21.90;99.90;;;;;;497219;239;29273;-71
2022/05/20 09:09:48;;;;;;;3.80;3.40;;;22.00;99.90;;;;;;497241;239;29238;-72
2022/05/20 09:11:49;;;;;;;4.00;3.60;;;22.00;99.90;;;;;;497269;239;29347;-75
2022/05/20 09:16:07;;;;;;;4.20;3.80;;;22.30;99.90;;;;;;489646;243;29404;-72
2022/05/20 09:18:08;;;;;;;5.47;3.30;;;22.30;99.90;;;;;;492341;239;29248;-71
2022/05/20 09:20:10;;;;;;;5.20;3.40;;;22.30;99.90;;;;;;497189;239;28713;-73
2022/05/20 09:22:11;;;;;;;5.10;3.20;;;22.40;99.90;;;;;;497208;239;28780;-71
2022/05/20 09:24:12;;;;;;;5.10;3.13;;;22.30;99.90;;;;;;497230;239;28829;-71
2022/05/20 09:26:16;;;;;;;6.57;3.23;;;22.30;99.90;;;;;;497257;239;28892;-74
2022/05/20 09:28:15;;;;;;;3.30;3.00;;;22.40;99.90;;;;;;497098;238;28904;-71
2022/05/20 09:30:16;;;;;;;3.33;3.00;;;22.40;99.90;;;;;;497239;239;28805;-71
2022/05/20 09:32:17;;;;;;;3.83;3.20;;;22.40;99.90;;;;;;497225;239;28769;-71
2022/05/20 09:34:19;;;;;;;4.00;3.63;;;22.50;99.90;;;;;;497210;239;28812;-71
2022/05/20 09:36:21;;;;;;;3.20;2.90;;;22.60;99.90;;;;;;497217;239;28853;-75
2022/05/20 09:38:21;;;;;;;4.03;3.30;;;22.60;99.90;;;;;;497181;239;29221;-71
2022/05/20 09:40:22;;;;;;;5.33;3.00;;;22.60;99.90;;;;;;497254;238;29261;-72
2022/05/20 09:42:23;;;;;;;4.30;3.00;;;22.70;99.90;;;;;;497231;239;29369;-71
2022/05/20 09:44:25;;;;;;;7.37;3.27;;;22.70;99.90;;;;;;497220;239;29266;-71
2022/05/20 09:46:26;;;;;;;4.00;3.07;;;22.70;99.90;;;;;;497237;239;28887;-74
2022/05/20 09:48:27;;;;;;;6.20;2.90;;;22.90;99.90;;;;;;497206;239;28790;-71
2022/05/20 09:50:28;;;;;;;4.23;3.20;;;23.00;99.90;;;;;;497230;239;28809;-71
2022/05/20 09:52:31;;;;;;;4.03;3.00;;;23.00;99.90;;;;;;497223;239;29245;-71
2022/05/20 09:54:31;;;;;;;4.07;3.43;;;23.00;99.90;;;;;;497209;239;28793;-71
2022/05/20 09:56:33;;;;;;;4.67;3.00;;;22.90;99.90;;;;;;497249;239;28900;-74
2022/05/20 09:58:33;;;;;;;4.90;2.83;;;22.80;99.90;;;;;;497214;239;28875;-71
2022/05/20 10:00:35;;;;;;;5.23;3.60;;;22.90;99.90;;;;;;497252;239;28809;-72
2022/05/20 10:02:36;;;;;;;5.23;3.10;;;23.10;99.90;;;;;;497225;239;30075;-73
2022/05/20 10:04:37;;;;;;;5.20;3.30;;;23.20;99.90;;;;;;497280;239;29290;-71
2022/05/20 10:06:38;;;;;;;3.40;3.03;;;23.30;99.90;;;;;;497263;239;29271;-73
2022/05/20 10:08:40;;;;;;;8.83;3.10;;;23.30;99.90;;;;;;497245;239;29205;-71
2022/05/20 10:10:41;;;;;;;4.20;3.17;;;23.30;99.90;;;;;;497242;239;28798;-72
2022/05/20 10:12:42;;;;;;;3.37;2.60;;;23.30;99.90;;;;;;497222;239;28936;-71
2022/05/20 10:14:43;;;;;;;5.63;3.57;;;23.40;99.90;;;;;;497246;239;28852;-71
2022/05/20 10:16:45;;;;;;;4.00;3.17;;;23.50;99.90;;;;;;497251;239;28825;-72
2022/05/20 10:18:46;;;;;;;8.83;3.13;;;23.60;99.90;;;;;;497220;239;28765;-71
2022/05/20 10:20:47;;;;;;;5.50;3.43;;;23.80;99.90;;;;;;497217;239;28811;-72
2022/05/20 10:22:48;;;;;;;6.87;2.77;;;24.10;99.90;;;;;;497215;239;28766;-72
2022/05/20 10:24:50;;;;;;;3.30;2.90;;;24.20;99.90;;;;;;497247;239;28790;-71
2022/05/20 10:26:51;;;;;;;7.13;3.30;;;24.10;99.90;;;;;;497233;239;28894;-72
2022/05/20 10:33:31;;;;;;;8.57;2.97;;;23.80;99.90;;;;;;497226;238;29335;-76
2022/05/20 10:35:32;;;;;;;3.90;3.23;;;23.80;99.90;;;;;;497242;239;29314;-71
2022/05/20 10:37:33;;;;;;;4.70;3.03;;;23.80;99.90;;;;;;497229;239;29258;-73
2022/05/20 10:39:35;;;;;;;8.10;3.10;;;23.80;99.90;;;;;;497224;239;29370;-72
2022/05/20 10:41:36;;;;;;;3.57;2.80;;;24.00;99.90;;;;;;497239;239;28793;-71
2022/05/20 10:48:34;;;;;;;7.33;3.20;;;24.20;99.90;;;;;;497259;239;28816;-75
2022/05/20 10:50:17;;;;;;;3.30;2.80;;;24.40;99.90;;;;;;497214;238;28955;-75
2022/05/20 10:52:19;;;;;;;3.20;2.90;;;24.50;99.90;;;;;;497236;239;28851;-71
2022/05/20 10:54:20;;;;;;;10.50;2.87;;;24.60;99.90;;;;;;497224;239;28812;-72
2022/05/20 10:56:21;;;;;;;3.27;2.97;;;24.70;99.90;;;;;;497203;239;28857;-72
2022/05/20 10:58:22;;;;;;;3.47;3.07;;;24.80;99.90;;;;;;497236;239;28864;-71
2022/05/20 11:00:24;;;;;;;4.53;2.63;;;24.70;99.90;;;;;;497238;239;28807;-73
2022/05/20 11:02:25;;;;;;;4.07;2.50;;;24.60;99.90;;;;;;497235;239;28809;-72
2022/05/20 11:04:26;;;;;;;2.40;2.20;;;24.60;99.90;;;;;;497219;239;28788;-72
2022/05/20 11:06:27;;;;;;;3.10;2.80;;;24.70;99.90;;;;;;497209;239;28854;-71